Hovedside
METAR-TAF:

METAR-TAF

Lufthavner :

Växjö, Sverige

Växjö lufthavn

breddegrad: 56-51N, lengdegrad: 014-50E, høyde over havet: 199 m

Gjeldene værobservasjon

Denne rapporten ble laget for 35 minutter siden, klokken 21:20 UTC
Vind 6 kt fra Sør-sørøst
Temperatur 17°C
Luftfuktighet 94%
Trykk 1008 hPa
Sikt: 5000 m
lett regn

METAR: ESMX 182120Z AUTO 15006KT 5000 -RA BKN003/// BKN006/// 17/16 Q1008 RERA

Tid: 23:55 (21:55 UTC)

Varsel

Denne rapporten ble laget for 4 timer og 25 minutter siden, klokken 17:30 UTC
Varsel gyldig fra 18. klokken 18 UTC til 18. klokken 21 UTC
Vind 7 kt fra Sør
Sikt 10 km eller mer
Spredte skyer i en høyde av 2000 ft
Brutte skyer i en høyde av 3500 ft

TAF: ESMX 181730Z 1818/1821 17007KT 9999 SCT020 BKN035

Værobservasjoner og værvarsel for over 4000 flyplasser (METAR- og TAF-rapporter).

Tilgjengelige stasjoner er representert av de røde og gule prikkene på kartet.

Hold musepekeren over prikken for å se navnet på stasjonen.

Klikk så for å se værobservasjoner og -varsler.

For å forandre kartet kan du klikke på den grønne knappen med svart kryss for å zoome inn, på den grønne knappen med strek for å zoome ut, eller på de grønne pilene for å se tilstøtende kart.


METAR-TAF: